Time;durP1;ratioP1;P1;durP2;ratioP2;P2;SDS_P1;SDS_P2;PMS_P1;PMS_P2;Temp;Humidity;BMP_temperature;BMP_pressure;BME280_temperature;BME280_humidity;BME280_pressure;Samples;Min_cycle;Max_cycle;Signal;HPM_P1;HPM_P2
2024/01/16 00:01:47;;;;;;;8.10;1.98;;;;;;;;;;5038580;28;20413;-69
2024/01/16 00:04:13;;;;;;;6.43;1.58;;;;;;;;;;5033395;28;20045;-69
2024/01/16 00:06:40;;;;;;;5.53;2.08;;;;;;;;;;5033411;28;20539;-69
2024/01/16 00:09:06;;;;;;;3.47;1.73;;;;;;;;;;5034017;28;20518;-69
2024/01/16 00:11:32;;;;;;;6.65;1.85;;;;;;;;;;5032294;28;20507;-69
2024/01/16 00:13:58;;;;;;;8.40;1.63;;;;;;;;;;5032078;28;20041;-69
2024/01/16 00:16:24;;;;;;;4.85;1.40;;;;;;;;;;5035125;28;20052;-69
2024/01/16 00:18:50;;;;;;;8.70;1.52;;;;;;;;;;5033209;28;20122;-69
2024/01/16 00:21:16;;;;;;;7.22;1.70;;;;;;;;;;5032557;28;20459;-69
2024/01/16 00:23:42;;;;;;;6.75;1.90;;;;;;;;;;5033059;28;20036;-69
2024/01/16 00:26:08;;;;;;;6.80;1.90;;;;;;;;;;5033263;28;20041;-69
2024/01/16 00:28:34;;;;;;;8.40;1.92;;;;;;;;;;5033521;28;20067;-69
2024/01/16 00:31:00;;;;;;;6.63;2.00;;;;;;;;;;5032139;28;20100;-68
2024/01/16 00:33:27;;;;;;;4.90;1.48;;;;;;;;;;5032604;28;20406;-69
2024/01/16 00:35:53;;;;;;;9.27;2.05;;;;;;;;;;5032995;28;20053;-69
2024/01/16 00:38:19;;;;;;;8.13;1.85;;;;;;;;;;5033156;28;20040;-69
2024/01/16 00:40:46;;;;;;;7.75;1.60;;;;;;;;;;5032212;28;20520;-69
2024/01/16 00:43:12;;;;;;;9.95;1.92;;;;;;;;;;5056699;28;20059;-69
2024/01/16 00:45:40;;;;;;;5.63;1.60;;;;;;;;;;5031212;28;20052;-69
2024/01/16 00:48:06;;;;;;;6.43;1.67;;;;;;;;;;5032306;28;20048;-69
2024/01/16 00:50:33;;;;;;;8.15;2.00;;;;;;;;;;5032476;28;20060;-69
2024/01/16 00:52:59;;;;;;;8.48;1.42;;;;;;;;;;5032989;28;20502;-69
2024/01/16 00:55:25;;;;;;;8.65;1.67;;;;;;;;;;5035310;28;20064;-69
2024/01/16 00:57:52;;;;;;;6.20;1.65;;;;;;;;;;5033608;28;20037;-69
2024/01/16 01:00:18;;;;;;;5.03;1.33;;;;;;;;;;5042822;28;20051;-68
2024/01/16 01:02:44;;;;;;;6.57;1.58;;;;;;;;;;5053529;28;20064;-68
2024/01/16 01:05:10;;;;;;;8.68;1.70;;;;;;;;;;5036382;28;20468;-65
2024/01/16 01:07:36;;;;;;;5.85;1.55;;;;;;;;;;5036812;28;20076;-65
2024/01/16 01:10:03;;;;;;;7.20;1.55;;;;;;;;;;5054937;28;20084;-65
2024/01/16 01:12:29;;;;;;;5.07;1.15;;;;;;;;;;5036945;28;20079;-65
2024/01/16 01:14:55;;;;;;;5.43;1.60;;;;;;;;;;5036774;28;20072;-65
2024/01/16 01:17:20;;;;;;;5.22;1.35;;;;;;;;;;5062067;22;20136;-69
2024/01/16 01:19:46;;;;;;;5.88;1.33;;;;;;;;;;5028980;28;20051;-69
2024/01/16 01:22:12;;;;;;;3.88;1.20;;;;;;;;;;5035659;28;20037;-69
2024/01/16 01:24:38;;;;;;;8.05;1.30;;;;;;;;;;5033078;28;20067;-69
2024/01/16 01:27:06;;;;;;;5.43;1.13;;;;;;;;;;5033724;28;20045;-69
2024/01/16 01:29:32;;;;;;;6.18;1.77;;;;;;;;;;5032136;28;20069;-69
2024/01/16 01:31:58;;;;;;;7.15;1.27;;;;;;;;;;5031892;28;20088;-69
2024/01/16 01:34:24;;;;;;;6.50;1.17;;;;;;;;;;5032575;28;20045;-69
2024/01/16 01:36:50;;;;;;;6.10;1.10;;;;;;;;;;5032497;28;20041;-69
2024/01/16 01:39:16;;;;;;;5.93;1.33;;;;;;;;;;5032524;28;20044;-69
2024/01/16 01:41:42;;;;;;;6.50;1.20;;;;;;;;;;5030548;28;20037;-69
2024/01/16 01:44:15;;;;;;;7.30;1.85;;;;;;;;;;5033391;28;20079;-69
2024/01/16 01:46:41;;;;;;;8.73;1.55;;;;;;;;;;5033685;28;20049;-69
2024/01/16 01:49:07;;;;;;;7.13;1.10;;;;;;;;;;5032475;28;20049;-69
2024/01/16 01:51:34;;;;;;;5.00;1.10;;;;;;;;;;5031959;28;20403;-69
2024/01/16 01:54:01;;;;;;;5.93;1.40;;;;;;;;;;5029552;28;20041;-69
2024/01/16 01:56:27;;;;;;;4.10;1.08;;;;;;;;;;5032356;28;20045;-69
2024/01/16 01:58:54;;;;;;;6.43;1.42;;;;;;;;;;5031853;28;20192;-69
2024/01/16 02:01:22;;;;;;;6.30;1.15;;;;;;;;;;5032544;28;20029;-69
2024/01/16 02:03:50;;;;;;;4.68;1.10;;;;;;;;;;5029112;28;20037;-69
2024/01/16 02:06:16;;;;;;;6.30;1.35;;;;;;;;;;5032096;28;20043;-69
2024/01/16 02:08:42;;;;;;;6.30;1.20;;;;;;;;;;5024698;28;20041;-69
2024/01/16 02:11:08;;;;;;;4.63;1.20;;;;;;;;;;5031802;28;20041;-69
2024/01/16 02:13:34;;;;;;;4.63;1.10;;;;;;;;;;5031952;28;20057;-69
2024/01/16 02:16:01;;;;;;;8.20;1.63;;;;;;;;;;5031749;28;20037;-69
2024/01/16 02:18:27;;;;;;;3.30;1.10;;;;;;;;;;5036724;28;20044;-69
2024/01/16 02:20:53;;;;;;;5.63;1.55;;;;;;;;;;5032241;28;20069;-69
2024/01/16 02:23:28;;;;;;;6.70;1.50;;;;;;;;;;5033340;28;20381;-69
2024/01/16 02:25:55;;;;;;;7.10;1.38;;;;;;;;;;5033448;28;20046;-69
2024/01/16 02:28:21;;;;;;;6.22;1.40;;;;;;;;;;5032811;28;20038;-69
2024/01/16 02:30:47;;;;;;;5.85;1.20;;;;;;;;;;5032994;28;20045;-69
2024/01/16 02:33:13;;;;;;;4.63;1.38;;;;;;;;;;5035360;28;20395;-69
2024/01/16 02:35:39;;;;;;;8.38;1.55;;;;;;;;;;5033072;28;20043;-69
2024/01/16 02:38:05;;;;;;;6.63;1.50;;;;;;;;;;5034766;28;20176;-69
2024/01/16 02:40:31;;;;;;;4.78;1.35;;;;;;;;;;5032605;28;20048;-69
2024/01/16 02:42:57;;;;;;;3.92;1.23;;;;;;;;;;5032899;28;20131;-69
2024/01/16 02:45:23;;;;;;;6.50;1.20;;;;;;;;;;5032485;28;20045;-69
2024/01/16 02:47:49;;;;;;;6.22;1.30;;;;;;;;;;5036833;28;20046;-69
2024/01/16 02:50:15;;;;;;;5.70;1.17;;;;;;;;;;5032691;28;20403;-69
2024/01/16 02:52:41;;;;;;;4.65;1.25;;;;;;;;;;5032388;28;20054;-69
2024/01/16 02:55:07;;;;;;;2.92;1.13;;;;;;;;;;5032494;28;20128;-69
2024/01/16 02:57:33;;;;;;;4.10;1.20;;;;;;;;;;5031874;28;20503;-69
2024/01/16 02:59:59;;;;;;;5.32;1.45;;;;;;;;;;5031472;28;20043;-69
2024/01/16 03:02:25;;;;;;;2.45;0.85;;;;;;;;;;5029802;28;20077;-69
2024/01/16 03:04:51;;;;;;;5.95;1.45;;;;;;;;;;5033131;28;20053;-69
2024/01/16 03:07:17;;;;;;;4.57;1.35;;;;;;;;;;5027925;28;20048;-69
2024/01/16 03:09:43;;;;;;;2.50;1.20;;;;;;;;;;5031849;28;20052;-69
2024/01/16 03:12:09;;;;;;;6.22;1.15;;;;;;;;;;5030190;28;20045;-69
2024/01/16 03:14:36;;;;;;;3.72;1.33;;;;;;;;;;5032860;28;20132;-69
2024/01/16 03:17:03;;;;;;;9.68;1.30;;;;;;;;;;5032288;28;20075;-69
2024/01/16 03:19:29;;;;;;;6.53;1.70;;;;;;;;;;5031573;28;20064;-69
2024/01/16 03:21:55;;;;;;;9.85;1.60;;;;;;;;;;5030569;28;20069;-69
2024/01/16 03:24:20;;;;;;;7.10;1.20;;;;;;;;;;5030469;28;20060;-69
2024/01/16 03:26:47;;;;;;;4.32;1.10;;;;;;;;;;5031577;28;20479;-69
2024/01/16 03:29:12;;;;;;;3.13;1.30;;;;;;;;;;5031770;28;20638;-69
2024/01/16 03:31:38;;;;;;;8.68;1.40;;;;;;;;;;5031833;28;20045;-69
2024/01/16 03:34:05;;;;;;;7.57;2.67;;;;;;;;;;5027476;28;20495;-69
2024/01/16 03:36:31;;;;;;;3.38;1.08;;;;;;;;;;5031740;28;20037;-69
2024/01/16 03:38:57;;;;;;;6.30;1.45;;;;;;;;;;5033061;28;20530;-69
2024/01/16 03:41:23;;;;;;;5.82;1.35;;;;;;;;;;5026656;28;20045;-68
2024/01/16 03:43:49;;;;;;;6.22;1.60;;;;;;;;;;5029797;28;20037;-69
2024/01/16 03:46:15;;;;;;;4.68;1.30;;;;;;;;;;5029520;28;20061;-69
2024/01/16 03:48:41;;;;;;;7.38;1.23;;;;;;;;;;5031135;28;20046;-69
2024/01/16 03:51:07;;;;;;;4.88;1.40;;;;;;;;;;5030687;28;20492;-69
2024/01/16 03:53:33;;;;;;;7.25;1.70;;;;;;;;;;5028730;28;20042;-69
2024/01/16 03:55:59;;;;;;;6.95;1.75;;;;;;;;;;5025955;28;20037;-69
2024/01/16 03:58:25;;;;;;;3.90;1.33;;;;;;;;;;5030884;28;20117;-69
2024/01/16 04:00:53;;;;;;;4.22;1.73;;;;;;;;;;5033722;28;20033;-69
2024/01/16 04:03:19;;;;;;;6.00;1.40;;;;;;;;;;5031053;28;20045;-69
2024/01/16 04:05:45;;;;;;;5.78;1.33;;;;;;;;;;5030599;28;20045;-69
2024/01/16 04:08:12;;;;;;;5.30;1.40;;;;;;;;;;5029774;28;20077;-69
2024/01/16 04:10:38;;;;;;;6.68;1.30;;;;;;;;;;5030594;28;20096;-69
2024/01/16 04:13:04;;;;;;;3.70;1.10;;;;;;;;;;5029310;28;20037;-69
2024/01/16 04:15:30;;;;;;;7.63;1.55;;;;;;;;;;5030359;28;20033;-69
2024/01/16 04:17:57;;;;;;;7.03;1.30;;;;;;;;;;5030470;28;20091;-69
2024/01/16 04:20:22;;;;;;;6.68;1.55;;;;;;;;;;5030690;28;20120;-69
2024/01/16 04:22:49;;;;;;;4.50;1.30;;;;;;;;;;5031284;28;20129;-69
2024/01/16 04:25:15;;;;;;;6.43;1.30;;;;;;;;;;5030532;28;20048;-69
2024/01/16 04:27:41;;;;;;;11.50;1.48;;;;;;;;;;5031153;28;20057;-69
2024/01/16 04:30:07;;;;;;;9.13;1.42;;;;;;;;;;5030130;28;20534;-69
2024/01/16 04:32:33;;;;;;;6.22;1.27;;;;;;;;;;5029916;28;20065;-69
2024/01/16 04:34:59;;;;;;;5.82;1.20;;;;;;;;;;5033750;28;20464;-69
2024/01/16 04:37:25;;;;;;;7.72;2.08;;;;;;;;;;5032358;28;20109;-69
2024/01/16 04:39:51;;;;;;;5.47;1.38;;;;;;;;;;5033037;28;20037;-68
2024/01/16 04:42:17;;;;;;;7.03;1.25;;;;;;;;;;5032608;28;20056;-69
2024/01/16 04:44:44;;;;;;;7.00;1.65;;;;;;;;;;5033374;28;20041;-69
2024/01/16 04:47:11;;;;;;;5.80;1.50;;;;;;;;;;5033031;28;20033;-68
2024/01/16 04:49:37;;;;;;;3.92;1.70;;;;;;;;;;5032693;28;20525;-68
2024/01/16 04:52:03;;;;;;;6.90;1.48;;;;;;;;;;5032688;28;20503;-68
2024/01/16 04:54:29;;;;;;;4.78;1.27;;;;;;;;;;5032094;28;20033;-69
2024/01/16 04:56:55;;;;;;;14.57;1.77;;;;;;;;;;5033908;28;20590;-69
2024/01/16 04:59:21;;;;;;;7.25;1.50;;;;;;;;;;5031436;28;20099;-68
2024/01/16 05:01:47;;;;;;;3.47;1.50;;;;;;;;;;5021828;28;20084;-69
2024/01/16 05:04:13;;;;;;;6.60;1.50;;;;;;;;;;5031685;28;20099;-69
2024/01/16 05:06:39;;;;;;;8.25;1.50;;;;;;;;;;5027607;28;20049;-68
2024/01/16 05:09:05;;;;;;;3.58;1.50;;;;;;;;;;5027542;28;20045;-68
2024/01/16 05:11:31;;;;;;;6.82;1.40;;;;;;;;;;5024681;28;20561;-68
2024/01/16 05:13:58;;;;;;;6.22;1.55;;;;;;;;;;5031928;28;20033;-68
2024/01/16 05:16:25;;;;;;;3.63;1.25;;;;;;;;;;5025681;28;20034;-68
2024/01/16 05:18:51;;;;;;;8.05;1.45;;;;;;;;;;5028836;28;20038;-68
2024/01/16 05:21:17;;;;;;;9.30;1.60;;;;;;;;;;5021632;28;20648;-68
2024/01/16 05:23:43;;;;;;;5.15;1.60;;;;;;;;;;5019804;28;20042;-68
2024/01/16 05:26:09;;;;;;;5.68;1.20;;;;;;;;;;5018804;28;20176;-68
2024/01/16 05:28:35;;;;;;;8.30;1.65;;;;;;;;;;5020068;28;20038;-68
2024/01/16 05:31:01;;;;;;;4.82;1.70;;;;;;;;;;5028092;28;20372;-69
2024/01/16 05:33:28;;;;;;;5.10;1.40;;;;;;;;;;5031089;28;20065;-69
2024/01/16 05:35:54;;;;;;;5.05;1.58;;;;;;;;;;5032983;28;20033;-69
2024/01/16 05:38:19;;;;;;;8.10;1.50;;;;;;;;;;5032076;28;20030;-69
2024/01/16 05:40:45;;;;;;;9.45;1.58;;;;;;;;;;5033078;28;20025;-68
2024/01/16 05:43:11;;;;;;;6.00;1.45;;;;;;;;;;5029296;28;20041;-68
2024/01/16 05:45:37;;;;;;;6.05;1.30;;;;;;;;;;5030921;28;20045;-68
2024/01/16 05:48:03;;;;;;;6.85;1.40;;;;;;;;;;5024261;28;20478;-68
2024/01/16 05:50:30;;;;;;;10.32;1.75;;;;;;;;;;5018664;28;20041;-69
2024/01/16 05:52:56;;;;;;;6.63;1.58;;;;;;;;;;5025751;28;20411;-69
2024/01/16 05:55:22;;;;;;;4.60;1.92;;;;;;;;;;5030606;28;20041;-68
2024/01/16 05:57:48;;;;;;;8.48;2.25;;;;;;;;;;5024614;28;20038;-68
2024/01/16 06:00:14;;;;;;;6.40;1.38;;;;;;;;;;5028463;28;20029;-68
2024/01/16 06:02:40;;;;;;;1.70;1.08;;;;;;;;;;5020649;28;20120;-68
2024/01/16 06:05:07;;;;;;;6.63;1.52;;;;;;;;;;5025291;28;20491;-68
2024/01/16 06:07:33;;;;;;;5.28;1.60;;;;;;;;;;5024523;28;20048;-68
2024/01/16 06:09:59;;;;;;;6.88;1.42;;;;;;;;;;5027996;28;20033;-68
2024/01/16 06:12:25;;;;;;;5.38;1.60;;;;;;;;;;5025967;28;20053;-68
2024/01/16 06:14:50;;;;;;;5.80;1.40;;;;;;;;;;5023635;28;20498;-68
2024/01/16 06:17:16;;;;;;;7.70;1.77;;;;;;;;;;5027055;28;20073;-68
2024/01/16 06:19:42;;;;;;;3.20;1.45;;;;;;;;;;5022237;28;20041;-68
2024/01/16 06:22:08;;;;;;;8.88;1.70;;;;;;;;;;5025701;28;20403;-68
2024/01/16 06:24:36;;;;;;;4.40;1.65;;;;;;;;;;5022571;28;20041;-69
2024/01/16 06:27:05;;;;;;;6.97;1.60;;;;;;;;;;5024845;28;20392;-69
2024/01/16 06:29:31;;;;;;;6.32;1.63;;;;;;;;;;5024764;28;20049;-69
2024/01/16 06:31:56;;;;;;;6.90;1.80;;;;;;;;;;5028594;28;20049;-68
2024/01/16 06:34:22;;;;;;;7.57;2.15;;;;;;;;;;5023674;28;20037;-68
2024/01/16 06:36:48;;;;;;;4.55;1.98;;;;;;;;;;5024906;28;20072;-69
2024/01/16 06:39:14;;;;;;;6.85;1.98;;;;;;;;;;5022309;28;20052;-69
2024/01/16 06:41:43;;;;;;;7.05;2.10;;;;;;;;;;5024801;28;20609;-69
2024/01/16 06:44:09;;;;;;;8.30;2.13;;;;;;;;;;5022808;28;20033;-69
2024/01/16 06:46:35;;;;;;;5.38;2.60;;;;;;;;;;5027677;28;20041;-67
2024/01/16 06:49:02;;;;;;;7.35;2.50;;;;;;;;;;5024330;28;20488;-67
2024/01/16 06:51:28;;;;;;;5.85;2.40;;;;;;;;;;5028463;28;20456;-67
2024/01/16 06:53:54;;;;;;;7.05;2.70;;;;;;;;;;5017768;28;21705;-67
2024/01/16 06:56:20;;;;;;;8.35;2.92;;;;;;;;;;5029351;28;20033;-67
2024/01/16 06:58:46;;;;;;;7.85;2.42;;;;;;;;;;5025940;28;20050;-67
2024/01/16 07:01:14;;;;;;;9.43;2.83;;;;;;;;;;5024841;28;20033;-67
2024/01/16 07:03:40;;;;;;;9.40;2.92;;;;;;;;;;5028428;28;20427;-67
2024/01/16 07:06:06;;;;;;;5.95;2.78;;;;;;;;;;5028032;28;20045;-67
2024/01/16 07:08:32;;;;;;;7.25;2.92;;;;;;;;;;5030658;28;20072;-67
2024/01/16 07:10:58;;;;;;;6.85;3.10;;;;;;;;;;5031258;28;20106;-67
2024/01/16 07:13:24;;;;;;;7.07;3.20;;;;;;;;;;5028152;28;20097;-67
2024/01/16 07:15:50;;;;;;;10.15;3.00;;;;;;;;;;5054002;22;20033;-68
2024/01/16 07:18:16;;;;;;;12.38;3.05;;;;;;;;;;5070030;28;20035;-68
2024/01/16 07:20:41;;;;;;;6.25;2.90;;;;;;;;;;5054116;28;20408;-67
2024/01/16 07:23:07;;;;;;;9.38;3.33;;;;;;;;;;5052138;28;20033;-67
2024/01/16 07:25:33;;;;;;;7.57;3.28;;;;;;;;;;5025548;28;20053;-67
2024/01/16 07:28:00;;;;;;;7.55;3.47;;;;;;;;;;5050313;28;20483;-67
2024/01/16 07:30:26;;;;;;;7.55;3.35;;;;;;;;;;5044861;28;20295;-67
2024/01/16 07:32:52;;;;;;;5.90;3.25;;;;;;;;;;5033603;28;20041;-67
2024/01/16 07:35:18;;;;;;;7.53;3.55;;;;;;;;;;5051561;28;20032;-68
2024/01/16 07:37:44;;;;;;;9.38;3.55;;;;;;;;;;5033008;28;20357;-68
2024/01/16 07:40:10;;;;;;;9.88;3.85;;;;;;;;;;5032734;28;20470;-68
2024/01/16 07:42:36;;;;;;;7.82;3.45;;;;;;;;;;5051166;28;20533;-68
2024/01/16 07:45:04;;;;;;;9.50;3.80;;;;;;;;;;5050623;28;20116;-68
2024/01/16 07:47:31;;;;;;;12.85;4.65;;;;;;;;;;5043983;28;20037;-68
2024/01/16 07:49:57;;;;;;;8.82;3.90;;;;;;;;;;5033323;28;20049;-68
2024/01/16 07:52:23;;;;;;;9.20;3.65;;;;;;;;;;5051038;28;20070;-68
2024/01/16 07:54:49;;;;;;;6.70;3.47;;;;;;;;;;5033494;28;20129;-68
2024/01/16 07:57:15;;;;;;;11.20;4.05;;;;;;;;;;5051619;28;20064;-68
2024/01/16 07:59:41;;;;;;;7.07;4.30;;;;;;;;;;5051093;28;20033;-68
2024/01/16 08:02:08;;;;;;;8.45;3.90;;;;;;;;;;5050838;28;20157;-68
2024/01/16 08:04:34;;;;;;;11.75;4.25;;;;;;;;;;5050997;28;20522;-68
2024/01/16 08:07:00;;;;;;;11.88;4.22;;;;;;;;;;5050868;28;20553;-68
2024/01/16 08:09:27;;;;;;;8.63;4.05;;;;;;;;;;5032555;28;20122;-68
2024/01/16 08:11:52;;;;;;;10.55;4.55;;;;;;;;;;5050960;28;20041;-68
2024/01/16 08:14:18;;;;;;;10.80;3.95;;;;;;;;;;5050536;28;20518;-68
2024/01/16 08:16:44;;;;;;;14.25;4.70;;;;;;;;;;5049901;28;20033;-68
2024/01/16 08:19:10;;;;;;;9.45;4.45;;;;;;;;;;5047623;28;20491;-68
2024/01/16 08:21:36;;;;;;;9.68;4.80;;;;;;;;;;5047715;28;20120;-68
2024/01/16 08:24:02;;;;;;;10.68;5.00;;;;;;;;;;5050058;28;20474;-68
2024/01/16 08:26:28;;;;;;;9.00;4.90;;;;;;;;;;5050960;28;20037;-68
2024/01/16 08:28:54;;;;;;;13.35;4.90;;;;;;;;;;5051223;28;20037;-68
2024/01/16 08:31:20;;;;;;;9.80;4.35;;;;;;;;;;5050732;28;20456;-68
2024/01/16 08:33:47;;;;;;;10.23;5.15;;;;;;;;;;5050526;28;20124;-68
2024/01/16 08:36:13;;;;;;;13.55;4.80;;;;;;;;;;5050392;28;20124;-68
2024/01/16 08:38:39;;;;;;;10.38;5.05;;;;;;;;;;5029738;28;20068;-68
2024/01/16 08:41:06;;;;;;;10.88;5.28;;;;;;;;;;5050866;28;20083;-68
2024/01/16 08:43:33;;;;;;;12.07;5.13;;;;;;;;;;5051324;28;20049;-68
2024/01/16 08:45:59;;;;;;;10.50;5.18;;;;;;;;;;5029913;28;20056;-68
2024/01/16 08:48:25;;;;;;;9.88;5.30;;;;;;;;;;5051046;28;20510;-68
2024/01/16 08:50:51;;;;;;;12.73;5.38;;;;;;;;;;5050603;28;20075;-68
2024/01/16 08:53:17;;;;;;;10.80;4.85;;;;;;;;;;5033133;28;20084;-68
2024/01/16 08:55:43;;;;;;;13.68;5.65;;;;;;;;;;5031745;28;20487;-68
2024/01/16 08:58:09;;;;;;;10.82;5.13;;;;;;;;;;5055439;28;20037;-68
2024/01/16 09:00:35;;;;;;;14.00;5.43;;;;;;;;;;5033009;28;20041;-68
2024/01/16 09:03:01;;;;;;;12.43;5.40;;;;;;;;;;5050736;28;20044;-68
2024/01/16 09:05:27;;;;;;;10.88;5.65;;;;;;;;;;5050122;28;20152;-68
2024/01/16 09:07:53;;;;;;;10.77;5.15;;;;;;;;;;5033194;28;20120;-68
2024/01/16 09:10:19;;;;;;;12.73;5.65;;;;;;;;;;5050910;28;20037;-68
2024/01/16 09:12:45;;;;;;;12.88;4.55;;;;;;;;;;5033005;28;20457;-68
2024/01/16 09:15:12;;;;;;;15.27;5.63;;;;;;;;;;5050268;28;20552;-68
2024/01/16 09:17:38;;;;;;;10.75;5.68;;;;;;;;;;5031396;28;20044;-68
2024/01/16 09:20:06;;;;;;;9.93;5.22;;;;;;;;;;5033892;28;20041;-68
2024/01/16 09:22:33;;;;;;;15.20;5.88;;;;;;;;;;5054118;28;20502;-68
2024/01/16 09:24:59;;;;;;;11.65;5.65;;;;;;;;;;5054790;28;20090;-68
2024/01/16 09:27:25;;;;;;;10.93;5.55;;;;;;;;;;5036243;28;20491;-68
2024/01/16 09:29:51;;;;;;;13.15;6.05;;;;;;;;;;5036204;28;20402;-68
2024/01/16 09:32:17;;;;;;;12.02;6.43;;;;;;;;;;5035841;28;20468;-69
2024/01/16 09:34:43;;;;;;;10.75;5.97;;;;;;;;;;5036187;28;20076;-69
2024/01/16 09:37:09;;;;;;;16.27;6.57;;;;;;;;;;5036055;28;20032;-69
2024/01/16 09:39:37;;;;;;;11.02;6.20;;;;;;;;;;5035773;28;20405;-69
2024/01/16 09:42:04;;;;;;;11.52;6.32;;;;;;;;;;5053784;28;20073;-69
2024/01/16 09:44:30;;;;;;;14.02;6.63;;;;;;;;;;5047602;28;20056;-69
2024/01/16 09:46:57;;;;;;;12.45;5.57;;;;;;;;;;5054027;28;20076;-69
2024/01/16 09:49:23;;;;;;;14.10;6.40;;;;;;;;;;5035732;28;20049;-69
2024/01/16 09:51:50;;;;;;;11.32;6.20;;;;;;;;;;5052094;28;20049;-69
2024/01/16 09:54:16;;;;;;;10.88;5.60;;;;;;;;;;5036222;28;20295;-69
2024/01/16 09:56:43;;;;;;;10.05;5.68;;;;;;;;;;5035872;28;20041;-69
2024/01/16 09:59:09;;;;;;;13.75;5.55;;;;;;;;;;5049722;28;20033;-70
2024/01/16 10:01:36;;;;;;;11.00;5.93;;;;;;;;;;5052997;28;20048;-70
2024/01/16 10:04:02;;;;;;;8.98;6.10;;;;;;;;;;5035812;28;20037;-70
2024/01/16 10:06:29;;;;;;;13.23;5.65;;;;;;;;;;5035750;28;20076;-70
2024/01/16 10:08:55;;;;;;;11.45;5.95;;;;;;;;;;5035495;28;20040;-70
2024/01/16 10:11:21;;;;;;;12.00;5.95;;;;;;;;;;5035297;28;20047;-70
2024/01/16 10:13:47;;;;;;;9.00;5.65;;;;;;;;;;5034994;28;20049;-70
2024/01/16 10:16:13;;;;;;;10.15;5.30;;;;;;;;;;5053230;28;20402;-69
2024/01/16 10:18:39;;;;;;;8.82;5.25;;;;;;;;;;5035642;28;20128;-70
2024/01/16 10:21:05;;;;;;;10.57;5.43;;;;;;;;;;5052711;28;20457;-70
2024/01/16 10:23:35;;;;;;;9.30;5.70;;;;;;;;;;5052530;28;20127;-70
2024/01/16 10:26:14;;;;;;;8.68;5.10;;;;;;;;;;5030369;28;20056;-69
2024/01/16 10:28:43;;;;;;;12.52;5.47;;;;;;;;;;5044978;28;20052;-69
2024/01/16 10:31:15;;;;;;;13.63;5.40;;;;;;;;;;5051611;28;20464;-69
2024/01/16 10:33:41;;;;;;;6.85;4.90;;;;;;;;;;5052746;28;20130;-69
2024/01/16 10:36:11;;;;;;;8.88;4.53;;;;;;;;;;5051157;28;20464;-69
2024/01/16 10:38:41;;;;;;;7.53;3.90;;;;;;;;;;5052691;28;20127;-69
2024/01/16 10:41:10;;;;;;;5.90;4.13;;;;;;;;;;5028354;28;20044;-69
2024/01/16 10:43:37;;;;;;;5.13;3.60;;;;;;;;;;5052403;28;20052;-69
2024/01/16 10:46:16;;;;;;;10.50;4.53;;;;;;;;;;5051657;28;20111;-69
2024/01/16 10:48:43;;;;;;;7.10;4.40;;;;;;;;;;5044483;28;20536;-69
2024/01/16 10:51:14;;;;;;;5.75;3.65;;;;;;;;;;5054078;28;20044;-69
2024/01/16 10:53:44;;;;;;;5.68;3.13;;;;;;;;;;5050549;28;20483;-69
2024/01/16 10:56:15;;;;;;;6.38;3.30;;;;;;;;;;5052257;28;20512;-69
2024/01/16 10:58:42;;;;;;;7.22;2.53;;;;;;;;;;5050761;28;20048;-69
2024/01/16 11:01:16;;;;;;;4.78;3.42;;;;;;;;;;5053684;28;20040;-69
2024/01/16 11:03:49;;;;;;;5.68;2.78;;;;;;;;;;5034123;28;20048;-69
2024/01/16 11:06:16;;;;;;;5.25;2.92;;;;;;;;;;5050786;28;20039;-69
2024/01/16 11:08:42;;;;;;;5.28;2.85;;;;;;;;;;5051512;28;20059;-68
2024/01/16 11:11:08;;;;;;;5.07;2.58;;;;;;;;;;5050760;28;20052;-68
2024/01/16 11:13:35;;;;;;;6.43;3.17;;;;;;;;;;5050411;28;20068;-68
2024/01/16 11:16:05;;;;;;;5.38;2.58;;;;;;;;;;5051470;28;20467;-68
2024/01/16 11:18:32;;;;;;;6.65;2.40;;;;;;;;;;5049749;28;20043;-68
2024/01/16 11:20:59;;;;;;;7.60;2.67;;;;;;;;;;5049141;28;20041;-68
2024/01/16 11:23:25;;;;;;;4.80;2.38;;;;;;;;;;5051142;28;20449;-69
2024/01/16 11:25:51;;;;;;;5.53;2.33;;;;;;;;;;5031380;28;20125;-70
2024/01/16 11:28:19;;;;;;;6.25;2.35;;;;;;;;;;5052546;28;20041;-70
2024/01/16 11:30:45;;;;;;;7.22;2.92;;;;;;;;;;5045060;28;20052;-70
2024/01/16 11:33:37;;;;;;;4.20;2.30;;;;;;;;;;5051786;28;20394;-70
2024/01/16 11:36:03;;;;;;;4.85;2.60;;;;;;;;;;5047579;28;20044;-70
2024/01/16 11:38:30;;;;;;;8.65;2.60;;;;;;;;;;5051443;28;20543;-70
2024/01/16 11:40:56;;;;;;;5.00;2.83;;;;;;;;;;5033049;28;20041;-70
2024/01/16 11:43:34;;;;;;;3.53;2.85;;;;;;;;;;5051005;28;20047;-70
2024/01/16 11:46:09;;;;;;;8.05;3.38;;;;;;;;;;5028543;28;20052;-70
2024/01/16 11:48:38;;;;;;;6.93;3.13;;;;;;;;;;5051531;28;20041;-70
2024/01/16 11:51:24;;;;;;;8.02;3.85;;;;;;;;;;5032832;28;20554;-69
2024/01/16 11:53:49;;;;;;;9.50;3.80;;;;;;;;;;5050763;28;20087;-69
2024/01/16 11:56:15;;;;;;;8.43;3.60;;;;;;;;;;5051314;28;20072;-69
2024/01/16 11:58:47;;;;;;;8.75;4.32;;;;;;;;;;5051881;28;20215;-69
2024/01/16 12:01:13;;;;;;;7.07;4.20;;;;;;;;;;5050867;28;20045;-69
2024/01/16 12:03:39;;;;;;;8.15;4.60;;;;;;;;;;5049589;28;20462;-69
2024/01/16 12:06:06;;;;;;;10.85;5.50;;;;;;;;;;5037622;28;20075;-69
2024/01/16 12:08:32;;;;;;;9.38;5.75;;;;;;;;;;5050779;28;20120;-69
2024/01/16 12:10:59;;;;;;;9.98;5.57;;;;;;;;;;5041986;28;20040;-69
2024/01/16 12:13:25;;;;;;;12.10;5.68;;;;;;;;;;5031457;28;20045;-69
2024/01/16 12:16:01;;;;;;;9.38;5.72;;;;;;;;;;5046417;28;20522;-69
2024/01/16 12:18:27;;;;;;;12.48;6.07;;;;;;;;;;5049248;28;20041;-69
2024/01/16 12:20:53;;;;;;;12.02;6.03;;;;;;;;;;5030923;28;20040;-69
2024/01/16 12:23:20;;;;;;;15.00;6.53;;;;;;;;;;5027715;28;20044;-70
2024/01/16 12:25:46;;;;;;;11.30;5.78;;;;;;;;;;5043187;28;20055;-70
2024/01/16 12:28:17;;;;;;;11.77;7.07;;;;;;;;;;5022872;28;20798;-70
2024/01/16 12:30:49;;;;;;;14.02;7.00;;;;;;;;;;5019705;28;20179;-70
2024/01/16 12:33:16;;;;;;;11.85;7.35;;;;;;;;;;5038599;28;20726;-70
2024/01/16 12:35:43;;;;;;;17.60;7.63;;;;;;;;;;5051667;28;20048;-70
2024/01/16 12:38:09;;;;;;;11.73;6.78;;;;;;;;;;5027357;28;20048;-70
2024/01/16 12:40:36;;;;;;;12.90;7.35;;;;;;;;;;5026344;28;20041;-70
2024/01/16 12:43:03;;;;;;;13.38;7.82;;;;;;;;;;5028154;28;20159;-70
2024/01/16 12:45:29;;;;;;;14.10;7.32;;;;;;;;;;5042125;28;20029;-70
2024/01/16 12:47:58;;;;;;;13.75;7.18;;;;;;;;;;5043087;28;20033;-70
2024/01/16 12:50:26;;;;;;;13.95;7.22;;;;;;;;;;5049731;28;20048;-70
2024/01/16 12:53:05;;;;;;;15.60;8.40;;;;;;;;;;5050211;28;20749;-70
2024/01/16 12:55:32;;;;;;;16.42;6.95;;;;;;;;;;5036267;28;20037;-70
2024/01/16 12:58:19;;;;;;;15.65;7.72;;;;;;;;;;5031374;28;20483;-70
2024/01/16 13:00:49;;;;;;;18.85;7.95;;;;;;;;;;5034372;28;20525;-70
2024/01/16 13:03:22;;;;;;;15.57;7.40;;;;;;;;;;5046997;28;20048;-70
2024/01/16 13:05:55;;;;;;;16.25;7.00;;;;;;;;;;5029060;28;20407;-70
2024/01/16 13:08:22;;;;;;;13.88;7.15;;;;;;;;;;5050784;28;20127;-70
2024/01/16 13:11:02;;;;;;;15.40;7.10;;;;;;;;;;5051115;28;20079;-70
2024/01/16 13:13:28;;;;;;;14.40;7.00;;;;;;;;;;5048964;28;20041;-69
2024/01/16 13:15:54;;;;;;;17.20;7.25;;;;;;;;;;5076140;22;21458;-70
2024/01/16 13:18:24;;;;;;;11.65;7.43;;;;;;;;;;5056379;28;20059;-70
2024/01/16 13:20:51;;;;;;;12.18;6.40;;;;;;;;;;5049214;28;20053;-70
2024/01/16 13:23:17;;;;;;;14.98;6.30;;;;;;;;;;5031953;28;20041;-70
2024/01/16 13:25:45;;;;;;;10.27;6.35;;;;;;;;;;5036909;28;20041;-70
2024/01/16 13:28:11;;;;;;;12.68;6.22;;;;;;;;;;5038070;28;20175;-70
2024/01/16 13:30:37;;;;;;;14.25;6.22;;;;;;;;;;5034910;28;20046;-70
2024/01/16 13:33:04;;;;;;;12.27;6.38;;;;;;;;;;5034692;28;20037;-70
2024/01/16 13:35:30;;;;;;;10.15;5.45;;;;;;;;;;5034537;28;20049;-70
2024/01/16 13:37:56;;;;;;;9.93;5.47;;;;;;;;;;5034821;28;20037;-70
2024/01/16 13:40:22;;;;;;;11.10;5.82;;;;;;;;;;5034204;28;20040;-70
2024/01/16 13:42:48;;;;;;;12.27;5.55;;;;;;;;;;5034296;28;20041;-70
2024/01/16 13:45:15;;;;;;;10.65;5.68;;;;;;;;;;5035754;28;20498;-70
2024/01/16 13:47:41;;;;;;;11.50;5.65;;;;;;;;;;5034662;28;20049;-70
2024/01/16 13:50:07;;;;;;;11.77;4.55;;;;;;;;;;5034427;28;20442;-70
2024/01/16 13:52:34;;;;;;;11.80;5.05;;;;;;;;;;5034036;28;20080;-70
2024/01/16 13:55:02;;;;;;;8.70;5.00;;;;;;;;;;5033923;28;20050;-70
2024/01/16 13:57:28;;;;;;;11.77;4.40;;;;;;;;;;5034276;28;20517;-70
2024/01/16 13:59:54;;;;;;;9.38;4.22;;;;;;;;;;5034246;28;20120;-70
2024/01/16 14:02:20;;;;;;;12.52;4.63;;;;;;;;;;5030013;28;20121;-70
2024/01/16 14:04:46;;;;;;;9.63;4.40;;;;;;;;;;5028644;28;20136;-70
2024/01/16 14:07:12;;;;;;;8.13;4.00;;;;;;;;;;5029668;28;20039;-70
2024/01/16 14:09:38;;;;;;;11.02;4.28;;;;;;;;;;5032905;28;20503;-70
2024/01/16 14:12:05;;;;;;;24.58;5.55;;;;;;;;;;5039054;28;20098;-70
2024/01/16 14:14:31;;;;;;;11.75;4.25;;;;;;;;;;5032051;28;20112;-70
2024/01/16 14:16:57;;;;;;;9.63;4.15;;;;;;;;;;5027851;28;20160;-70
2024/01/16 14:19:26;;;;;;;9.68;4.07;;;;;;;;;;5030525;28;20098;-70
2024/01/16 14:21:52;;;;;;;11.52;3.88;;;;;;;;;;5028371;28;20526;-70
2024/01/16 14:24:18;;;;;;;9.60;4.10;;;;;;;;;;5031847;28;20038;-70
2024/01/16 14:26:45;;;;;;;7.55;3.58;;;;;;;;;;5026312;28;20503;-69
2024/01/16 14:29:11;;;;;;;6.97;3.97;;;;;;;;;;5037573;28;20045;-70
2024/01/16 14:31:37;;;;;;;6.53;3.70;;;;;;;;;;5033663;28;20037;-70
2024/01/16 14:34:06;;;;;;;8.15;3.63;;;;;;;;;;5032290;28;20132;-70
2024/01/16 14:36:32;;;;;;;11.43;3.70;;;;;;;;;;5033402;28;20518;-70